AGW weather

Agnew Airport
Agnew, Queensland, Australia

Public forecast

Using degrees Celsius for public forecast. Weather courtesy of forecast.io.

METAR (pilot weather report)

Closest report is Weipa Airport, 34.6 nm (64.1 km) SSW. Retrieved 2019/05/22 10:00 UTC (47 minutes ago):

YBWP 221000Z AUTO 11008KT 9999 // OVC090 26/20 Q1014

TAF (pilot weather forecast)

Closest forecast is Horn Island Airport, 94.0 nm (174.1 km) N. Retrieved 2019/05/22 06:00 UTC (5 hours ago):

TAF YHID 220417Z 2206/2306 13020G28KT 9999 SCT022 BKN035 BKN045 FM220900 14014KT 9999 -SHRA SCT020 BKN030 FM222300 12020G28KT 9999 -SHRA SCT022 BKN035 INTER 2212/2224 4000 SHRA BKN015